createdAt,value
2018-11-01T00:02:05.337Z,4.67
2018-11-01T00:04:34.036Z,5.40
2018-11-01T00:07:02.749Z,4.77
2018-11-01T00:09:31.549Z,4.70
2018-11-01T00:12:00.268Z,3.77
2018-11-01T00:14:28.972Z,4.60
2018-11-01T00:16:58.033Z,4.57
2018-11-01T00:19:26.736Z,4.53
2018-11-01T00:21:55.731Z,4.50
2018-11-01T00:24:24.435Z,4.50
2018-11-01T00:26:53.153Z,4.17
2018-11-01T00:29:22.074Z,4.85
2018-11-01T00:31:50.811Z,6.83
2018-11-01T00:34:19.662Z,7.27
2018-11-01T00:36:48.361Z,7.93
2018-11-01T00:39:17.076Z,7.63
2018-11-01T00:41:45.784Z,6.53
2018-11-01T00:44:17.443Z,6.25
2018-11-01T00:46:46.153Z,5.93
2018-11-01T00:49:14.944Z,6.33
2018-11-01T00:51:43.681Z,5.57
2018-11-01T00:54:12.604Z,5.65
2018-11-01T00:56:41.612Z,5.50
2018-11-01T00:59:10.394Z,6.22
2018-11-01T01:01:39.289Z,7.20
2018-11-01T01:04:08.146Z,6.90
2018-11-01T01:06:36.972Z,7.13
2018-11-01T01:09:08.884Z,6.23
2018-11-01T01:11:37.651Z,6.43
2018-11-01T01:14:06.544Z,6.50
2018-11-01T01:16:35.401Z,7.77
2018-11-01T01:19:05.444Z,7.28
2018-11-01T01:21:34.317Z,8.00
2018-11-01T01:24:03.051Z,6.17
2018-11-01T01:26:31.939Z,7.10
2018-11-01T01:29:00.950Z,7.80
2018-11-01T01:31:30.024Z,7.17
2018-11-01T01:33:58.731Z,7.73
2018-11-01T01:36:27.650Z,6.60
2018-11-01T01:38:56.352Z,7.87
2018-11-01T01:41:25.056Z,7.67
2018-11-01T01:43:53.983Z,6.80
2018-11-01T01:46:23.003Z,7.10
2018-11-01T01:48:51.701Z,7.27
2018-11-01T01:51:20.408Z,8.20
2018-11-01T01:53:49.132Z,7.43
2018-11-01T01:56:17.847Z,7.33
2018-11-01T01:58:46.564Z,7.50
2018-11-01T02:01:15.588Z,8.57
2018-11-01T02:03:44.297Z,7.97
2018-11-01T02:06:13.016Z,7.83
2018-11-01T02:08:41.757Z,7.62
2018-11-01T02:11:10.464Z,8.17
2018-11-01T02:13:39.205Z,7.80
2018-11-01T02:16:08.146Z,8.00
2018-11-01T02:18:36.862Z,7.37
2018-11-01T02:21:06.183Z,8.13
2018-11-01T02:23:34.872Z,7.97
2018-11-01T02:26:03.581Z,8.40
2018-11-01T02:28:32.770Z,7.27
2018-11-01T02:31:01.468Z,8.00
2018-11-01T02:33:30.313Z,7.17
2018-11-01T02:35:59.188Z,8.50
2018-11-01T02:38:28.178Z,7.23
2018-11-01T02:40:57.040Z,7.27
2018-11-01T02:43:25.759Z,7.70
2018-11-01T02:45:58.476Z,8.00
2018-11-01T02:48:27.361Z,7.00
2018-11-01T02:50:56.178Z,7.10
2018-11-01T02:53:24.912Z,6.93
2018-11-01T02:55:53.629Z,7.05
2018-11-01T02:58:22.385Z,7.00
2018-11-01T03:00:51.084Z,6.97
2018-11-01T03:03:19.811Z,6.60
2018-11-01T03:05:48.516Z,7.00
2018-11-01T03:08:17.376Z,7.57
2018-11-01T03:10:46.140Z,6.60
2018-11-01T03:13:14.868Z,6.90
2018-11-01T03:15:43.580Z,6.20
2018-11-01T03:18:12.477Z,6.37
2018-11-01T03:20:41.605Z,6.33
2018-11-01T03:23:10.316Z,7.40
2018-11-01T03:25:39.042Z,6.70
2018-11-01T03:28:07.740Z,6.80
2018-11-01T03:30:36.713Z,6.87
2018-11-01T03:33:05.661Z,6.17
2018-11-01T03:35:34.410Z,6.40
2018-11-01T03:38:03.368Z,6.37
2018-11-01T03:40:32.043Z,6.97
2018-11-01T03:43:00.754Z,6.93
2018-11-01T03:45:29.450Z,6.30
2018-11-01T03:47:58.175Z,6.80
2018-11-01T03:50:26.951Z,6.28
2018-11-01T03:52:55.657Z,6.50
2018-11-01T03:55:24.463Z,6.23
2018-11-01T03:57:53.184Z,6.10
2018-11-01T04:00:21.994Z,5.63
2018-11-01T04:02:51.096Z,5.50
2018-11-01T04:05:19.817Z,5.70
2018-11-01T04:07:48.791Z,6.17
2018-11-01T04:10:17.468Z,6.40
2018-11-01T04:12:46.180Z,5.73
2018-11-01T04:15:15.174Z,5.22
2018-11-01T04:17:44.074Z,6.00
2018-11-01T04:20:14.032Z,6.30
2018-11-01T04:22:43.128Z,6.33
2018-11-01T04:25:12.104Z,5.78
2018-11-01T04:27:40.826Z,6.43
2018-11-01T04:30:09.779Z,6.15
2018-11-01T04:32:38.569Z,6.70
2018-11-01T04:35:07.868Z,6.27
2018-11-01T04:37:36.583Z,6.30
2018-11-01T04:40:06.728Z,6.08
2018-11-01T04:42:35.600Z,6.05
2018-11-01T04:45:06.012Z,6.10
2018-11-01T04:47:34.758Z,5.57
2018-11-01T04:50:03.456Z,6.83
2018-11-01T04:52:32.170Z,6.63
2018-11-01T04:55:00.865Z,5.90
2018-11-01T04:57:29.583Z,6.27
2018-11-01T04:59:58.292Z,6.20
2018-11-01T05:02:26.981Z,6.03
2018-11-01T05:04:56.067Z,5.60
2018-11-01T05:07:24.780Z,7.23
2018-11-01T05:09:53.622Z,6.13
2018-11-01T05:12:22.564Z,6.05
2018-11-01T05:14:51.288Z,5.93
2018-11-01T05:17:20.133Z,5.35
2018-11-01T05:19:48.855Z,5.63
2018-11-01T05:22:17.648Z,6.83
2018-11-01T05:24:46.492Z,6.63
2018-11-01T05:27:15.190Z,5.50
2018-11-01T05:29:43.915Z,6.77
2018-11-01T05:32:12.611Z,6.80
2018-11-01T05:34:41.548Z,5.90
2018-11-01T05:37:10.268Z,6.10
2018-11-01T05:39:38.988Z,4.13
2018-11-01T05:42:07.755Z,5.33
2018-11-01T05:44:36.584Z,6.20
2018-11-01T05:47:05.416Z,6.07
2018-11-01T05:49:34.123Z,6.20
2018-11-01T05:52:02.829Z,5.70
2018-11-01T05:54:31.647Z,4.57
2018-11-01T05:57:00.432Z,6.03
2018-11-01T05:59:29.172Z,5.10
2018-11-01T06:02:00.280Z,7.10
2018-11-01T06:04:28.994Z,5.00
2018-11-01T06:06:57.689Z,5.43
2018-11-01T06:09:29.699Z,5.70
2018-11-01T06:11:58.402Z,5.53
2018-11-01T06:14:27.737Z,5.53
2018-11-01T06:16:57.279Z,5.87
2018-11-01T06:19:26.598Z,5.33
2018-11-01T06:21:55.298Z,5.77
2018-11-01T06:24:24.004Z,6.00
2018-11-01T06:26:52.698Z,6.53
2018-11-01T06:29:21.391Z,6.95
2018-11-01T06:31:50.197Z,6.03
2018-11-01T06:34:39.538Z,5.93
2018-11-01T06:37:08.461Z,5.93
2018-11-01T06:39:37.656Z,7.07
2018-11-01T06:42:06.427Z,6.33
2018-11-01T06:44:35.206Z,7.60
2018-11-01T06:47:04.816Z,6.47
2018-11-01T06:49:56.282Z,6.80
2018-11-01T06:52:25.022Z,6.47
2018-11-01T06:54:53.936Z,7.03
2018-11-01T06:57:22.651Z,5.50
2018-11-01T06:59:51.365Z,6.03
2018-11-01T07:02:20.391Z,6.53
2018-11-01T07:04:49.303Z,6.60
2018-11-01T07:07:18.181Z,5.77
2018-11-01T07:09:46.900Z,6.30
2018-11-01T07:12:15.613Z,5.93
2018-11-01T07:14:44.349Z,6.07
2018-11-01T07:17:13.256Z,5.97
2018-11-01T07:19:41.845Z,6.20
2018-11-01T07:22:10.596Z,6.12
2018-11-01T07:24:39.306Z,7.33
2018-11-01T07:27:08.004Z,7.33
2018-11-01T07:29:36.728Z,6.73
2018-11-01T07:32:06.391Z,6.13
2018-11-01T07:34:35.099Z,6.27
2018-11-01T07:37:05.343Z,6.62
2018-11-01T07:39:34.064Z,5.97
2018-11-01T07:42:02.784Z,5.80
2018-11-01T07:44:31.640Z,6.20
2018-11-01T07:47:00.513Z,6.10
2018-11-01T07:49:29.362Z,5.87
2018-11-01T07:51:58.070Z,6.37
2018-11-01T07:54:26.768Z,5.77
2018-11-01T07:56:55.485Z,5.57
2018-11-01T07:59:24.189Z,5.93
2018-11-01T08:01:53.057Z,6.57
2018-11-01T08:04:21.750Z,6.67
2018-11-01T08:06:50.456Z,7.03
2018-11-01T08:09:19.424Z,18.98
2018-11-01T08:11:48.314Z,13.40
2018-11-01T08:14:17.109Z,7.10
2018-11-01T08:16:45.817Z,10.13
2018-11-01T08:19:14.535Z,10.03
2018-11-01T08:21:43.298Z,7.90
2018-11-01T08:24:12.025Z,6.58
2018-11-01T08:26:41.008Z,7.00
2018-11-01T08:29:09.711Z,6.27
2018-11-01T08:31:38.428Z,6.77
2018-11-01T08:34:07.300Z,6.27
2018-11-01T08:36:35.957Z,6.83
2018-11-01T08:39:07.349Z,5.90
2018-11-01T08:41:36.016Z,5.50
2018-11-01T08:44:05.479Z,5.63
2018-11-01T08:46:34.217Z,5.63
2018-11-01T08:49:02.953Z,6.10
2018-11-01T08:51:31.667Z,6.30
2018-11-01T08:54:00.377Z,5.77
2018-11-01T08:56:29.372Z,5.80
2018-11-01T08:58:58.077Z,5.47
2018-11-01T09:01:26.792Z,6.33
2018-11-01T09:03:55.597Z,5.70
2018-11-01T09:06:24.247Z,5.90
2018-11-01T09:08:52.949Z,5.30
2018-11-01T09:11:21.766Z,4.97
2018-11-01T09:13:50.635Z,5.07
2018-11-01T09:16:19.384Z,5.57
2018-11-01T09:18:48.090Z,5.00
2018-11-01T09:21:16.842Z,5.40
2018-11-01T09:23:45.544Z,5.70
2018-11-01T09:26:14.363Z,5.27
2018-11-01T09:28:43.110Z,5.30
2018-11-01T09:31:11.820Z,5.40
2018-11-01T09:33:40.549Z,5.57
2018-11-01T09:36:09.264Z,4.90
2018-11-01T09:38:37.970Z,5.60
2018-11-01T09:41:06.847Z,5.43
2018-11-01T09:43:35.565Z,5.40
2018-11-01T09:46:05.352Z,5.85
2018-11-01T09:48:34.284Z,5.63
2018-11-01T09:51:03.360Z,5.47
2018-11-01T09:53:32.071Z,5.33
2018-11-01T09:56:01.194Z,5.13
2018-11-01T09:58:30.035Z,5.63
2018-11-01T10:00:58.780Z,5.63
2018-11-01T10:03:27.433Z,5.47
2018-11-01T10:05:56.167Z,5.80
2018-11-01T10:08:24.848Z,5.73
2018-11-01T10:10:53.596Z,5.77
2018-11-01T10:13:22.299Z,6.00
2018-11-01T10:15:51.312Z,6.20
2018-11-01T10:18:20.313Z,6.22
2018-11-01T10:20:48.580Z,6.13
2018-11-01T10:23:18.021Z,6.37
2018-11-01T10:25:47.047Z,6.10
2018-11-01T10:28:15.729Z,5.83
2018-11-01T10:30:44.432Z,6.60
2018-11-01T10:33:13.579Z,6.93
2018-11-01T10:35:42.302Z,6.27
2018-11-01T10:38:11.586Z,6.20
2018-11-01T10:40:40.309Z,6.03
2018-11-01T10:43:08.992Z,6.15
2018-11-01T10:45:37.715Z,6.37
2018-11-01T10:48:06.428Z,5.37
2018-11-01T10:50:35.120Z,6.17
2018-11-01T10:53:04.649Z,5.87
2018-11-01T10:55:33.367Z,5.20
2018-11-01T10:58:02.063Z,5.90
2018-11-01T11:00:36.196Z,5.87
2018-11-01T11:03:04.804Z,6.97
2018-11-01T11:05:33.519Z,6.43
2018-11-01T11:08:02.520Z,5.57
2018-11-01T11:10:31.205Z,6.53
2018-11-01T11:12:59.920Z,6.67
2018-11-01T11:15:28.632Z,6.70
2018-11-01T11:17:57.328Z,6.03
2018-11-01T11:20:26.282Z,6.10
2018-11-01T11:22:54.744Z,5.70
2018-11-01T11:25:23.449Z,6.20
2018-11-01T11:27:52.136Z,5.73
2018-11-01T11:30:21.155Z,6.20
2018-11-01T11:32:49.759Z,5.67
2018-11-01T11:35:18.500Z,5.72
2018-11-01T11:37:47.161Z,5.90
2018-11-01T11:40:15.965Z,6.17
2018-11-01T11:42:44.732Z,6.00
2018-11-01T11:45:13.680Z,6.23
2018-11-01T11:47:42.752Z,5.90
2018-11-01T11:50:12.539Z,5.33
2018-11-01T11:52:41.924Z,5.57
2018-11-01T11:55:11.056Z,5.33
2018-11-01T11:57:39.924Z,6.13
2018-11-01T12:00:10.627Z,6.57
2018-11-01T12:02:39.361Z,6.20
2018-11-01T12:05:08.317Z,6.00
2018-11-01T12:07:37.240Z,5.73
2018-11-01T12:10:06.715Z,6.00
2018-11-01T12:12:35.408Z,5.97
2018-11-01T12:15:04.316Z,6.03
2018-11-01T12:17:33.016Z,5.93
2018-11-01T12:20:01.844Z,5.67
2018-11-01T12:22:30.641Z,5.73
2018-11-01T12:24:59.561Z,6.00
2018-11-01T12:27:28.252Z,5.53
2018-11-01T12:29:57.136Z,5.97
2018-11-01T12:32:25.844Z,6.77
2018-11-01T12:34:54.560Z,7.33
2018-11-01T12:37:23.277Z,6.17
2018-11-01T12:39:51.987Z,6.57
2018-11-01T12:42:20.680Z,6.17
2018-11-01T12:44:53.652Z,6.17
2018-11-01T12:47:22.354Z,5.90
2018-11-01T12:49:51.160Z,5.83
2018-11-01T12:52:19.791Z,7.10
2018-11-01T12:54:48.509Z,6.50
2018-11-01T12:57:17.213Z,6.10
2018-11-01T12:59:45.921Z,6.08
2018-11-01T13:02:14.675Z,6.97
2018-11-01T13:04:43.312Z,7.03
2018-11-01T13:07:12.013Z,6.77
2018-11-01T13:09:40.747Z,5.93
2018-11-01T13:12:09.450Z,5.72
2018-11-01T13:14:38.161Z,6.27
2018-11-01T13:17:06.859Z,6.07
2018-11-01T13:19:35.560Z,6.10
2018-11-01T13:22:05.448Z,6.65
2018-11-01T13:24:34.153Z,6.73
2018-11-01T13:27:02.909Z,6.90
2018-11-01T13:29:31.860Z,7.57
2018-11-01T13:32:00.573Z,7.23
2018-11-01T13:34:29.292Z,7.27
2018-11-01T13:36:58.024Z,6.80
2018-11-01T13:42:18.527Z,6.57
2018-11-01T13:44:47.241Z,6.43
2018-11-01T13:47:16.058Z,6.40
2018-11-01T13:49:44.675Z,5.93
2018-11-01T13:52:13.372Z,7.00
2018-11-01T13:54:42.157Z,6.60
2018-11-01T13:57:10.781Z,7.50
2018-11-01T13:59:39.670Z,7.00
2018-11-01T14:02:08.467Z,6.80
2018-11-01T14:04:37.164Z,7.20
2018-11-01T14:07:06.276Z,6.87
2018-11-01T14:09:34.976Z,8.43
2018-11-01T14:12:03.684Z,7.13
2018-11-01T14:14:33.006Z,7.53
2018-11-01T14:17:02.069Z,7.37
2018-11-01T14:19:30.801Z,7.17
2018-11-01T14:21:59.496Z,7.60
2018-11-01T14:24:28.181Z,8.23
2018-11-01T14:26:56.984Z,8.63
2018-11-01T14:29:25.684Z,10.10
2018-11-01T14:31:54.397Z,8.93
2018-11-01T14:34:23.092Z,9.27
2018-11-01T14:36:51.820Z,9.10
2018-11-01T14:39:20.532Z,7.30
2018-11-01T14:41:49.216Z,8.60
2018-11-01T14:44:17.937Z,8.17
2018-11-01T14:46:46.629Z,8.97
2018-11-01T14:49:15.356Z,8.57
2018-11-01T14:51:44.115Z,9.03
2018-11-01T14:54:13.967Z,8.78
2018-11-01T14:56:42.696Z,9.30
2018-11-01T14:59:11.649Z,9.67
2018-11-01T15:01:38.922Z,10.70
2018-11-01T15:04:07.641Z,10.40
2018-11-01T15:06:36.434Z,9.30
2018-11-01T15:09:08.543Z,10.40
2018-11-01T15:11:37.261Z,9.50
2018-11-01T15:14:05.967Z,11.18
2018-11-01T15:16:34.681Z,11.03
2018-11-01T15:19:03.620Z,9.87
2018-11-01T15:21:32.376Z,12.00
2018-11-01T15:24:01.089Z,12.03
2018-11-01T15:26:29.796Z,11.10
2018-11-01T15:28:58.581Z,9.63
2018-11-01T15:31:27.577Z,10.53
2018-11-01T15:33:56.315Z,10.83
2018-11-01T15:36:24.985Z,10.60
2018-11-01T15:38:53.702Z,10.20
2018-11-01T15:41:22.431Z,9.55
2018-11-01T15:44:05.751Z,11.60
2018-11-01T15:46:34.880Z,10.53
2018-11-01T15:49:03.796Z,11.00
2018-11-01T15:51:32.539Z,12.23
2018-11-01T15:54:01.244Z,14.67
2018-11-01T15:56:29.956Z,12.93
2018-11-01T15:58:58.800Z,11.77
2018-11-01T16:01:27.524Z,13.00
2018-11-01T16:03:56.313Z,13.73
2018-11-01T16:06:24.933Z,11.80
2018-11-01T16:08:53.685Z,12.77
2018-11-01T16:11:22.519Z,12.17
2018-11-01T16:13:51.341Z,12.27
2018-11-01T16:16:20.076Z,12.50
2018-11-01T16:18:48.832Z,14.60
2018-11-01T16:21:17.512Z,13.85
2018-11-01T16:23:46.256Z,13.03
2018-11-01T16:26:14.979Z,12.40
2018-11-01T16:28:43.693Z,12.95
2018-11-01T16:31:12.403Z,11.68
2018-11-01T16:33:41.143Z,11.23
2018-11-01T16:36:09.844Z,12.67
2018-11-01T16:38:38.560Z,11.70
2018-11-01T16:41:07.260Z,13.10
2018-11-01T16:43:36.663Z,13.00
2018-11-01T16:46:05.593Z,12.83
2018-11-01T16:48:34.334Z,12.57
2018-11-01T16:51:03.129Z,12.80
2018-11-01T16:53:31.755Z,12.03
2018-11-01T16:56:00.497Z,14.03
2018-11-01T17:04:21.923Z,13.53
2018-11-01T17:06:50.908Z,16.33
2018-11-01T17:12:15.943Z,16.73
2018-11-01T17:14:44.737Z,18.37
2018-11-01T17:17:13.452Z,16.32
2018-11-01T17:19:42.416Z,17.53
2018-11-01T17:22:11.120Z,19.62
2018-11-01T17:24:39.827Z,20.83
2018-11-01T17:27:08.533Z,19.43
2018-11-01T17:29:37.259Z,16.43
2018-11-01T17:32:06.198Z,13.67
2018-11-01T17:34:34.896Z,15.17
2018-11-01T17:37:03.636Z,13.87
2018-11-01T17:39:32.348Z,15.67
2018-11-01T17:42:01.075Z,16.40
2018-11-01T17:44:30.012Z,14.60
2018-11-01T17:46:58.738Z,15.73
2018-11-01T17:49:27.572Z,14.77
2018-11-01T17:51:56.569Z,14.50
2018-11-01T17:54:25.543Z,15.53
2018-11-01T17:56:54.791Z,14.87
2018-11-01T17:59:23.853Z,15.63
2018-11-01T18:01:52.903Z,15.45
2018-11-01T18:04:21.557Z,16.57
2018-11-01T18:06:50.269Z,17.57
2018-11-01T18:09:19.193Z,17.30
2018-11-01T18:11:48.203Z,19.10
2018-11-01T18:14:17.211Z,21.00
2018-11-01T18:16:46.187Z,19.60
2018-11-01T18:19:15.037Z,15.28
2018-11-01T18:21:43.773Z,15.13
2018-11-01T18:24:12.856Z,18.70
2018-11-01T18:26:52.672Z,15.57
2018-11-01T18:29:21.898Z,17.20
2018-11-01T18:31:51.545Z,20.43
2018-11-01T18:34:21.443Z,19.17
2018-11-01T18:36:50.161Z,18.20
2018-11-01T18:39:19.184Z,20.68
2018-11-01T18:41:47.817Z,18.23
2018-11-01T18:44:16.779Z,15.80
2018-11-01T18:46:45.769Z,16.95
2018-11-01T18:49:15.683Z,18.20
2018-11-01T18:51:44.992Z,17.97
2018-11-01T18:54:13.869Z,17.42
2018-11-01T18:56:42.956Z,17.10
2018-11-01T18:59:12.082Z,15.23
2018-11-01T19:01:40.938Z,20.20
2018-11-01T19:04:09.932Z,16.00
2018-11-01T19:06:38.632Z,17.43
2018-11-01T19:09:08.857Z,17.37
2018-11-01T19:11:38.488Z,19.77
2018-11-01T19:14:07.564Z,18.77
2018-11-01T19:16:36.212Z,19.60
2018-11-01T19:19:05.369Z,17.70
2018-11-01T19:21:35.449Z,17.00
2018-11-01T19:29:13.644Z,16.97
2018-11-01T19:31:43.289Z,15.50
2018-11-01T19:34:12.452Z,17.77
2018-11-01T19:36:41.013Z,16.23
2018-11-01T19:39:10.945Z,20.15
2018-11-01T19:41:40.503Z,24.53
2018-11-01T19:44:09.491Z,26.42
2018-11-01T19:46:38.195Z,22.17
2018-11-01T19:49:06.904Z,18.90
2018-11-01T19:51:35.840Z,19.27
2018-11-01T19:54:05.266Z,19.17
2018-11-01T19:56:33.980Z,17.80
2018-11-01T19:59:03.639Z,16.67
2018-11-01T20:01:32.751Z,16.67
2018-11-01T20:04:01.772Z,17.57
2018-11-01T20:06:31.643Z,17.83
2018-11-01T20:09:00.482Z,17.90
2018-11-01T20:11:31.473Z,17.00
2018-11-01T20:14:00.212Z,15.83
2018-11-01T20:16:50.764Z,16.77
2018-11-01T20:19:19.686Z,18.30
2018-11-01T20:24:40.987Z,18.70
2018-11-01T20:27:21.720Z,18.87
2018-11-01T20:29:50.500Z,16.60
2018-11-01T20:32:19.212Z,19.83
2018-11-01T20:34:47.934Z,18.17
2018-11-01T20:37:16.820Z,19.82
2018-11-01T20:39:45.412Z,20.37
2018-11-01T20:42:14.356Z,18.73
2018-11-01T20:44:43.356Z,18.57
2018-11-01T20:47:12.068Z,19.20
2018-11-01T20:49:41.048Z,15.80
2018-11-01T20:52:09.750Z,17.13
2018-11-01T20:54:38.743Z,17.77
2018-11-01T20:57:07.614Z,15.97
2018-11-01T20:59:36.179Z,15.33
2018-11-01T21:02:04.887Z,16.65
2018-11-01T21:04:33.609Z,15.77
2018-11-01T21:07:02.749Z,15.10
2018-11-01T21:09:32.693Z,14.93
2018-11-01T21:12:01.483Z,17.80
2018-11-01T21:14:30.086Z,16.33
2018-11-01T21:16:59.175Z,17.03
2018-11-01T21:19:28.020Z,16.55
2018-11-01T21:21:56.734Z,16.23
2018-11-01T21:24:25.425Z,14.00
2018-11-01T21:26:54.380Z,15.87
2018-11-01T21:29:23.215Z,14.07
2018-11-01T21:31:51.867Z,14.50
2018-11-01T21:34:20.582Z,19.00
2018-11-01T21:36:50.355Z,15.87
2018-11-01T21:39:19.348Z,16.03
2018-11-01T21:41:48.334Z,16.77
2018-11-01T21:44:17.040Z,16.50
2018-11-01T21:46:45.766Z,15.73
2018-11-01T21:49:14.695Z,16.70
2018-11-01T21:51:43.426Z,15.63
2018-11-01T21:54:12.287Z,15.20
2018-11-01T21:56:41.027Z,15.80
2018-11-01T21:59:09.744Z,15.23
2018-11-01T22:01:38.736Z,15.27
2018-11-01T22:04:07.726Z,15.53
2018-11-01T22:06:36.404Z,15.70
2018-11-01T22:09:06.793Z,17.15
2018-11-01T22:11:35.545Z,14.73
2018-11-01T22:14:05.266Z,16.40
2018-11-01T22:16:34.009Z,16.77
2018-11-01T22:19:02.812Z,14.40
2018-11-01T22:21:31.546Z,15.27
2018-11-01T22:24:00.236Z,15.87
2018-11-01T22:26:29.267Z,15.93
2018-11-01T22:28:58.258Z,16.45
2018-11-01T22:31:26.968Z,15.07
2018-11-01T22:33:55.676Z,15.23
2018-11-01T22:36:24.623Z,16.10
2018-11-01T22:38:53.407Z,19.10
2018-11-01T22:41:22.307Z,16.10
2018-11-01T22:43:51.022Z,16.07
2018-11-01T22:46:19.747Z,17.20
2018-11-01T22:48:48.464Z,17.67
2018-11-01T22:51:17.185Z,15.47
2018-11-01T22:53:45.947Z,15.88
2018-11-01T22:56:15.943Z,17.00
2018-11-01T22:58:44.652Z,16.73
2018-11-01T23:01:13.388Z,16.80
2018-11-01T23:03:42.121Z,17.73
2018-11-01T23:06:11.135Z,16.93
2018-11-01T23:08:40.133Z,15.63
2018-11-01T23:11:09.115Z,17.67
2018-11-01T23:13:37.829Z,15.63
2018-11-01T23:16:07.088Z,16.43
2018-11-01T23:18:36.096Z,17.07
2018-11-01T23:21:05.608Z,16.42
2018-11-01T23:23:34.436Z,15.60
2018-11-01T23:26:03.290Z,14.37
2018-11-01T23:28:32.002Z,15.40
2018-11-01T23:31:00.769Z,14.27
2018-11-01T23:33:29.464Z,17.67
2018-11-01T23:36:03.525Z,16.23
2018-11-01T23:38:37.696Z,18.87
2018-11-01T23:41:11.824Z,16.80
2018-11-01T23:43:46.120Z,18.20
2018-11-01T23:46:20.230Z,17.00
2018-11-01T23:48:53.568Z,16.83
2018-11-01T23:51:22.281Z,16.63
2018-11-01T23:53:52.246Z,17.57
2018-11-01T23:56:21.095Z,19.03
2018-11-01T23:58:49.829Z,17.63
